sensor_id;sensor_type;location;lat;lon;timestamp;temperature;humidity
20416;DHT22;10367;52.202;5.996;2022-10-16T00:01:43;11.80;99.90
20416;DHT22;10367;52.202;5.996;2022-10-16T00:04:13;11.80;99.90
20416;DHT22;10367;52.202;5.996;2022-10-16T00:06:41;11.70;99.90
20416;DHT22;10367;52.202;5.996;2022-10-16T00:09:10;11.70;99.90
20416;DHT22;10367;52.202;5.996;2022-10-16T00:11:41;11.70;99.90
20416;DHT22;10367;52.202;5.996;2022-10-16T00:14:12;11.70;99.90
20416;DHT22;10367;52.202;5.996;2022-10-16T00:16:41;11.70;99.90
20416;DHT22;10367;52.202;5.996;2022-10-16T00:19:10;11.70;99.90
20416;DHT22;10367;52.202;5.996;2022-10-16T00:21:39;11.70;99.90
20416;DHT22;10367;52.202;5.996;2022-10-16T00:24:09;11.70;99.90
20416;DHT22;10367;52.202;5.996;2022-10-16T00:26:39;11.60;99.90
20416;DHT22;10367;52.202;5.996;2022-10-16T00:29:09;11.60;99.90
20416;DHT22;10367;52.202;5.996;2022-10-16T00:31:40;11.60;99.90
20416;DHT22;10367;52.202;5.996;2022-10-16T00:34:09;11.70;99.90
20416;DHT22;10367;52.202;5.996;2022-10-16T00:36:38;11.70;99.90
20416;DHT22;10367;52.202;5.996;2022-10-16T00:39:07;11.70;99.90
20416;DHT22;10367;52.202;5.996;2022-10-16T00:41:35;11.70;99.90
20416;DHT22;10367;52.202;5.996;2022-10-16T00:47:19;11.70;99.90
20416;DHT22;10367;52.202;5.996;2022-10-16T00:49:51;11.70;99.90
20416;DHT22;10367;52.202;5.996;2022-10-16T00:52:21;11.70;99.90
20416;DHT22;10367;52.202;5.996;2022-10-16T00:54:52;11.60;99.90
20416;DHT22;10367;52.202;5.996;2022-10-16T00:57:22;11.60;99.90
20416;DHT22;10367;52.202;5.996;2022-10-16T00:59:51;11.60;99.90
20416;DHT22;10367;52.202;5.996;2022-10-16T01:02:21;11.50;99.90
20416;DHT22;10367;52.202;5.996;2022-10-16T01:04:52;11.50;99.90
20416;DHT22;10367;52.202;5.996;2022-10-16T01:07:30;11.60;99.90
20416;DHT22;10367;52.202;5.996;2022-10-16T01:10:10;11.60;99.90
20416;DHT22;10367;52.202;5.996;2022-10-16T01:12:46;11.60;99.90
20416;DHT22;10367;52.202;5.996;2022-10-16T01:15:23;11.60;99.90
20416;DHT22;10367;52.202;5.996;2022-10-16T01:18:00;11.60;99.90
20416;DHT22;10367;52.202;5.996;2022-10-16T01:20:31;11.70;99.90
20416;DHT22;10367;52.202;5.996;2022-10-16T01:23:21;11.70;99.90
20416;DHT22;10367;52.202;5.996;2022-10-16T01:26:04;11.70;99.90
20416;DHT22;10367;52.202;5.996;2022-10-16T01:28:42;11.70;99.90
20416;DHT22;10367;52.202;5.996;2022-10-16T01:31:19;11.80;99.90
20416;DHT22;10367;52.202;5.996;2022-10-16T01:33:54;11.80;99.90
20416;DHT22;10367;52.202;5.996;2022-10-16T01:36:27;11.90;99.90
20416;DHT22;10367;52.202;5.996;2022-10-16T01:39:01;12.00;99.90
20416;DHT22;10367;52.202;5.996;2022-10-16T01:41:33;12.00;99.90
20416;DHT22;10367;52.202;5.996;2022-10-16T01:44:06;12.00;99.90
20416;DHT22;10367;52.202;5.996;2022-10-16T01:46:39;12.10;99.90
20416;DHT22;10367;52.202;5.996;2022-10-16T01:49:10;12.10;99.90
20416;DHT22;10367;52.202;5.996;2022-10-16T01:51:42;12.20;99.90
20416;DHT22;10367;52.202;5.996;2022-10-16T01:54:12;12.20;99.90
20416;DHT22;10367;52.202;5.996;2022-10-16T01:56:42;12.20;99.90
20416;DHT22;10367;52.202;5.996;2022-10-16T01:59:16;12.20;99.90
20416;DHT22;10367;52.202;5.996;2022-10-16T02:01:49;12.20;99.90
20416;DHT22;10367;52.202;5.996;2022-10-16T02:04:21;12.20;99.90
20416;DHT22;10367;52.202;5.996;2022-10-16T02:06:52;12.20;99.90
20416;DHT22;10367;52.202;5.996;2022-10-16T02:09:21;12.20;99.90
20416;DHT22;10367;52.202;5.996;2022-10-16T02:11:51;12.30;99.90
20416;DHT22;10367;52.202;5.996;2022-10-16T02:14:22;12.30;99.90
20416;DHT22;10367;52.202;5.996;2022-10-16T02:16:52;12.40;99.90
20416;DHT22;10367;52.202;5.996;2022-10-16T02:19:21;12.40;99.90
20416;DHT22;10367;52.202;5.996;2022-10-16T02:21:53;12.30;99.90
20416;DHT22;10367;52.202;5.996;2022-10-16T02:24:29;12.30;99.90
20416;DHT22;10367;52.202;5.996;2022-10-16T02:27:03;12.30;99.90
20416;DHT22;10367;52.202;5.996;2022-10-16T02:29:40;12.30;99.90
20416;DHT22;10367;52.202;5.996;2022-10-16T02:32:13;12.20;99.90
20416;DHT22;10367;52.202;5.996;2022-10-16T02:34:44;12.20;99.90
20416;DHT22;10367;52.202;5.996;2022-10-16T02:37:14;12.20;99.90
20416;DHT22;10367;52.202;5.996;2022-10-16T02:39:44;12.30;99.90
20416;DHT22;10367;52.202;5.996;2022-10-16T02:42:14;12.30;99.90
20416;DHT22;10367;52.202;5.996;2022-10-16T02:44:44;12.30;99.90
20416;DHT22;10367;52.202;5.996;2022-10-16T02:47:13;12.30;99.90
20416;DHT22;10367;52.202;5.996;2022-10-16T02:49:42;12.30;99.90
20416;DHT22;10367;52.202;5.996;2022-10-16T02:52:10;12.30;99.90
20416;DHT22;10367;52.202;5.996;2022-10-16T02:54:39;12.30;99.90
20416;DHT22;10367;52.202;5.996;2022-10-16T02:57:08;12.30;99.90
20416;DHT22;10367;52.202;5.996;2022-10-16T02:59:37;12.30;99.90
20416;DHT22;10367;52.202;5.996;2022-10-16T03:02:07;12.30;99.90
20416;DHT22;10367;52.202;5.996;2022-10-16T03:04:36;12.30;99.90
20416;DHT22;10367;52.202;5.996;2022-10-16T03:07:04;12.30;99.90
20416;DHT22;10367;52.202;5.996;2022-10-16T03:09:33;12.30;99.90
20416;DHT22;10367;52.202;5.996;2022-10-16T03:12:02;12.30;99.90
20416;DHT22;10367;52.202;5.996;2022-10-16T03:14:31;12.40;99.90
20416;DHT22;10367;52.202;5.996;2022-10-16T03:17:00;12.30;99.90
20416;DHT22;10367;52.202;5.996;2022-10-16T03:19:31;12.40;99.90
20416;DHT22;10367;52.202;5.996;2022-10-16T03:21:59;12.40;99.90
20416;DHT22;10367;52.202;5.996;2022-10-16T03:24:28;12.40;99.90
20416;DHT22;10367;52.202;5.996;2022-10-16T03:26:57;12.30;99.90
20416;DHT22;10367;52.202;5.996;2022-10-16T03:29:26;12.40;99.90
20416;DHT22;10367;52.202;5.996;2022-10-16T03:31:56;12.30;99.90
20416;DHT22;10367;52.202;5.996;2022-10-16T03:34:25;12.30;99.90
20416;DHT22;10367;52.202;5.996;2022-10-16T03:36:55;12.20;99.90
20416;DHT22;10367;52.202;5.996;2022-10-16T03:39:24;12.10;99.90
20416;DHT22;10367;52.202;5.996;2022-10-16T03:41:53;12.00;99.90
20416;DHT22;10367;52.202;5.996;2022-10-16T03:44:22;11.90;99.90
20416;DHT22;10367;52.202;5.996;2022-10-16T03:46:50;11.90;99.90
20416;DHT22;10367;52.202;5.996;2022-10-16T03:49:19;12.00;99.90
20416;DHT22;10367;52.202;5.996;2022-10-16T03:51:47;12.00;99.90
20416;DHT22;10367;52.202;5.996;2022-10-16T03:54:20;12.00;99.90
20416;DHT22;10367;52.202;5.996;2022-10-16T03:56:49;12.00;99.90
20416;DHT22;10367;52.202;5.996;2022-10-16T03:59:18;12.00;99.90
20416;DHT22;10367;52.202;5.996;2022-10-16T04:01:46;11.90;99.90
20416;DHT22;10367;52.202;5.996;2022-10-16T04:04:15;11.90;99.90
20416;DHT22;10367;52.202;5.996;2022-10-16T04:06:44;11.90;99.90
20416;DHT22;10367;52.202;5.996;2022-10-16T04:09:12;11.90;99.90
20416;DHT22;10367;52.202;5.996;2022-10-16T04:11:42;11.90;99.90
20416;DHT22;10367;52.202;5.996;2022-10-16T04:14:11;11.90;99.90
20416;DHT22;10367;52.202;5.996;2022-10-16T04:16:40;12.00;99.90
20416;DHT22;10367;52.202;5.996;2022-10-16T04:19:09;11.90;99.90
20416;DHT22;10367;52.202;5.996;2022-10-16T04:21:38;11.90;99.90
20416;DHT22;10367;52.202;5.996;2022-10-16T04:24:07;11.90;99.90
20416;DHT22;10367;52.202;5.996;2022-10-16T04:26:35;11.90;99.90
20416;DHT22;10367;52.202;5.996;2022-10-16T04:29:05;11.90;99.90
20416;DHT22;10367;52.202;5.996;2022-10-16T04:31:34;11.90;99.90
20416;DHT22;10367;52.202;5.996;2022-10-16T04:34:03;11.90;99.90
20416;DHT22;10367;52.202;5.996;2022-10-16T04:36:31;11.90;99.90
20416;DHT22;10367;52.202;5.996;2022-10-16T04:39:00;11.80;99.90
20416;DHT22;10367;52.202;5.996;2022-10-16T04:41:28;11.80;99.90
20416;DHT22;10367;52.202;5.996;2022-10-16T04:43:57;11.80;99.90
20416;DHT22;10367;52.202;5.996;2022-10-16T04:46:27;11.80;99.90
20416;DHT22;10367;52.202;5.996;2022-10-16T04:48:56;11.90;99.90
20416;DHT22;10367;52.202;5.996;2022-10-16T04:51:24;11.90;99.90
20416;DHT22;10367;52.202;5.996;2022-10-16T04:53:55;11.90;99.90
20416;DHT22;10367;52.202;5.996;2022-10-16T04:56:23;11.90;99.90
20416;DHT22;10367;52.202;5.996;2022-10-16T04:58:52;11.90;99.90
20416;DHT22;10367;52.202;5.996;2022-10-16T05:01:21;11.90;99.90
20416;DHT22;10367;52.202;5.996;2022-10-16T05:03:51;11.90;99.90
20416;DHT22;10367;52.202;5.996;2022-10-16T05:06:20;11.80;99.90
20416;DHT22;10367;52.202;5.996;2022-10-16T05:08:48;11.80;99.90
20416;DHT22;10367;52.202;5.996;2022-10-16T05:11:17;11.80;99.90
20416;DHT22;10367;52.202;5.996;2022-10-16T05:13:46;11.80;99.90
20416;DHT22;10367;52.202;5.996;2022-10-16T05:16:19;11.80;99.90
20416;DHT22;10367;52.202;5.996;2022-10-16T05:18:48;11.70;99.90
20416;DHT22;10367;52.202;5.996;2022-10-16T05:21:23;11.70;99.90
20416;DHT22;10367;52.202;5.996;2022-10-16T05:23:53;11.70;99.90
20416;DHT22;10367;52.202;5.996;2022-10-16T05:26:22;11.70;99.90
20416;DHT22;10367;52.202;5.996;2022-10-16T05:28:51;11.70;99.90
20416;DHT22;10367;52.202;5.996;2022-10-16T05:31:19;11.70;99.90
20416;DHT22;10367;52.202;5.996;2022-10-16T05:33:48;11.60;99.90
20416;DHT22;10367;52.202;5.996;2022-10-16T05:36:17;11.70;99.90
20416;DHT22;10367;52.202;5.996;2022-10-16T05:38:50;11.60;99.90
20416;DHT22;10367;52.202;5.996;2022-10-16T05:41:19;11.70;99.90
20416;DHT22;10367;52.202;5.996;2022-10-16T05:43:49;11.60;99.90
20416;DHT22;10367;52.202;5.996;2022-10-16T05:46:17;11.50;99.90
20416;DHT22;10367;52.202;5.996;2022-10-16T05:48:46;11.60;99.90
20416;DHT22;10367;52.202;5.996;2022-10-16T05:51:15;11.50;99.90
20416;DHT22;10367;52.202;5.996;2022-10-16T05:53:43;11.50;99.90
20416;DHT22;10367;52.202;5.996;2022-10-16T05:56:14;11.50;99.90
20416;DHT22;10367;52.202;5.996;2022-10-16T05:58:42;11.50;99.90
20416;DHT22;10367;52.202;5.996;2022-10-16T06:01:13;11.50;99.90
20416;DHT22;10367;52.202;5.996;2022-10-16T06:03:46;11.60;99.90
20416;DHT22;10367;52.202;5.996;2022-10-16T06:06:19;11.60;99.90
20416;DHT22;10367;52.202;5.996;2022-10-16T06:08:49;11.60;99.90
20416;DHT22;10367;52.202;5.996;2022-10-16T06:11:21;11.60;99.90
20416;DHT22;10367;52.202;5.996;2022-10-16T06:13:50;11.60;99.90
20416;DHT22;10367;52.202;5.996;2022-10-16T06:16:19;11.70;99.90
20416;DHT22;10367;52.202;5.996;2022-10-16T06:18:50;11.60;99.90
20416;DHT22;10367;52.202;5.996;2022-10-16T06:21:20;11.60;99.90
20416;DHT22;10367;52.202;5.996;2022-10-16T06:23:49;11.60;99.90
20416;DHT22;10367;52.202;5.996;2022-10-16T06:26:21;11.60;99.90
20416;DHT22;10367;52.202;5.996;2022-10-16T06:28:50;11.80;99.90
20416;DHT22;10367;52.202;5.996;2022-10-16T06:31:19;11.80;99.90
20416;DHT22;10367;52.202;5.996;2022-10-16T06:33:50;11.90;99.90
20416;DHT22;10367;52.202;5.996;2022-10-16T06:36:20;12.00;99.90
20416;DHT22;10367;52.202;5.996;2022-10-16T06:38:49;12.00;99.90
20416;DHT22;10367;52.202;5.996;2022-10-16T06:41:20;12.10;99.90
20416;DHT22;10367;52.202;5.996;2022-10-16T06:43:49;12.10;99.90
20416;DHT22;10367;52.202;5.996;2022-10-16T06:46:22;12.20;99.90
20416;DHT22;10367;52.202;5.996;2022-10-16T06:48:51;12.30;99.90
20416;DHT22;10367;52.202;5.996;2022-10-16T06:51:22;12.30;99.90
20416;DHT22;10367;52.202;5.996;2022-10-16T06:53:52;12.30;99.90
20416;DHT22;10367;52.202;5.996;2022-10-16T06:56:33;12.40;99.90
20416;DHT22;10367;52.202;5.996;2022-10-16T06:59:02;12.40;99.90
20416;DHT22;10367;52.202;5.996;2022-10-16T07:01:31;12.40;99.90
20416;DHT22;10367;52.202;5.996;2022-10-16T07:04:01;12.40;99.90
20416;DHT22;10367;52.202;5.996;2022-10-16T07:06:32;12.30;99.90
20416;DHT22;10367;52.202;5.996;2022-10-16T07:09:03;12.30;99.90
20416;DHT22;10367;52.202;5.996;2022-10-16T07:11:34;12.40;99.90
20416;DHT22;10367;52.202;5.996;2022-10-16T07:14:04;12.40;99.90
20416;DHT22;10367;52.202;5.996;2022-10-16T07:16:33;12.40;99.90
20416;DHT22;10367;52.202;5.996;2022-10-16T07:19:02;12.50;99.90
20416;DHT22;10367;52.202;5.996;2022-10-16T07:21:32;12.50;99.90
20416;DHT22;10367;52.202;5.996;2022-10-16T07:24:05;12.60;99.90
20416;DHT22;10367;52.202;5.996;2022-10-16T07:26:37;12.70;99.90
20416;DHT22;10367;52.202;5.996;2022-10-16T07:29:08;12.70;99.90
20416;DHT22;10367;52.202;5.996;2022-10-16T07:31:41;12.80;99.90
20416;DHT22;10367;52.202;5.996;2022-10-16T07:34:11;12.80;99.90
20416;DHT22;10367;52.202;5.996;2022-10-16T07:36:43;12.90;99.90
20416;DHT22;10367;52.202;5.996;2022-10-16T07:39:13;12.90;99.90
20416;DHT22;10367;52.202;5.996;2022-10-16T07:41:43;13.00;99.90
20416;DHT22;10367;52.202;5.996;2022-10-16T07:44:12;13.00;99.90
20416;DHT22;10367;52.202;5.996;2022-10-16T07:46:41;13.10;99.90
20416;DHT22;10367;52.202;5.996;2022-10-16T07:49:09;13.10;99.90
20416;DHT22;10367;52.202;5.996;2022-10-16T07:51:38;13.20;99.90
20416;DHT22;10367;52.202;5.996;2022-10-16T07:54:08;13.30;99.90
20416;DHT22;10367;52.202;5.996;2022-10-16T07:56:37;13.30;99.90
20416;DHT22;10367;52.202;5.996;2022-10-16T07:59:11;13.40;99.90
20416;DHT22;10367;52.202;5.996;2022-10-16T08:01:43;13.50;99.90
20416;DHT22;10367;52.202;5.996;2022-10-16T08:04:12;13.50;99.90
20416;DHT22;10367;52.202;5.996;2022-10-16T08:06:41;13.60;99.90
20416;DHT22;10367;52.202;5.996;2022-10-16T08:09:13;13.70;99.90
20416;DHT22;10367;52.202;5.996;2022-10-16T08:11:42;13.70;99.90
20416;DHT22;10367;52.202;5.996;2022-10-16T08:14:15;13.80;99.90
20416;DHT22;10367;52.202;5.996;2022-10-16T08:16:43;13.80;99.90
20416;DHT22;10367;52.202;5.996;2022-10-16T08:19:12;13.90;99.90
20416;DHT22;10367;52.202;5.996;2022-10-16T08:21:46;13.90;99.90
20416;DHT22;10367;52.202;5.996;2022-10-16T08:24:15;13.80;99.90
20416;DHT22;10367;52.202;5.996;2022-10-16T08:26:44;13.70;99.90
20416;DHT22;10367;52.202;5.996;2022-10-16T08:29:14;13.60;99.90
20416;DHT22;10367;52.202;5.996;2022-10-16T08:31:43;13.50;99.90
20416;DHT22;10367;52.202;5.996;2022-10-16T08:34:12;13.50;99.90
20416;DHT22;10367;52.202;5.996;2022-10-16T08:36:41;13.50;99.90
20416;DHT22;10367;52.202;5.996;2022-10-16T08:39:09;13.60;99.90
20416;DHT22;10367;52.202;5.996;2022-10-16T08:41:58;13.60;99.90
20416;DHT22;10367;52.202;5.996;2022-10-16T08:44:46;13.80;99.90
20416;DHT22;10367;52.202;5.996;2022-10-16T08:47:20;13.80;99.90
20416;DHT22;10367;52.202;5.996;2022-10-16T08:49:56;13.90;99.90
20416;DHT22;10367;52.202;5.996;2022-10-16T08:52:29;13.90;99.90
20416;DHT22;10367;52.202;5.996;2022-10-16T08:54:58;14.10;99.90
20416;DHT22;10367;52.202;5.996;2022-10-16T08:57:27;14.20;99.90
20416;DHT22;10367;52.202;5.996;2022-10-16T09:00:05;14.20;99.90
20416;DHT22;10367;52.202;5.996;2022-10-16T09:02:37;14.20;99.90
20416;DHT22;10367;52.202;5.996;2022-10-16T09:05:21;14.30;99.90
20416;DHT22;10367;52.202;5.996;2022-10-16T09:08:00;14.50;99.90
20416;DHT22;10367;52.202;5.996;2022-10-16T09:10:41;14.50;99.90
20416;DHT22;10367;52.202;5.996;2022-10-16T09:13:20;14.50;99.90
20416;DHT22;10367;52.202;5.996;2022-10-16T09:15:59;14.60;99.90
20416;DHT22;10367;52.202;5.996;2022-10-16T09:18:34;14.60;99.90
20416;DHT22;10367;52.202;5.996;2022-10-16T09:21:10;14.60;99.90
20416;DHT22;10367;52.202;5.996;2022-10-16T09:23:41;14.70;99.90
20416;DHT22;10367;52.202;5.996;2022-10-16T09:26:13;14.80;99.90
20416;DHT22;10367;52.202;5.996;2022-10-16T09:28:42;14.90;99.90
20416;DHT22;10367;52.202;5.996;2022-10-16T09:31:16;15.00;99.90
20416;DHT22;10367;52.202;5.996;2022-10-16T09:33:51;15.00;99.90
20416;DHT22;10367;52.202;5.996;2022-10-16T09:36:24;15.20;99.90
20416;DHT22;10367;52.202;5.996;2022-10-16T09:39:03;15.30;99.90
20416;DHT22;10367;52.202;5.996;2022-10-16T09:41:34;15.50;99.90
20416;DHT22;10367;52.202;5.996;2022-10-16T09:44:13;15.60;99.90
20416;DHT22;10367;52.202;5.996;2022-10-16T09:46:44;15.70;99.90
20416;DHT22;10367;52.202;5.996;2022-10-16T09:49:21;15.70;99.90
20416;DHT22;10367;52.202;5.996;2022-10-16T09:51:51;15.90;99.90
20416;DHT22;10367;52.202;5.996;2022-10-16T09:54:31;16.10;99.90
20416;DHT22;10367;52.202;5.996;2022-10-16T09:57:06;16.10;99.90
20416;DHT22;10367;52.202;5.996;2022-10-16T09:59:46;16.10;99.90
20416;DHT22;10367;52.202;5.996;2022-10-16T10:02:18;16.30;99.90
20416;DHT22;10367;52.202;5.996;2022-10-16T10:04:50;16.40;99.90
20416;DHT22;10367;52.202;5.996;2022-10-16T10:07:25;16.40;99.90
20416;DHT22;10367;52.202;5.996;2022-10-16T10:09:56;16.50;99.90
20416;DHT22;10367;52.202;5.996;2022-10-16T10:12:26;16.50;99.90
20416;DHT22;10367;52.202;5.996;2022-10-16T10:14:58;16.40;99.90
20416;DHT22;10367;52.202;5.996;2022-10-16T10:17:33;16.50;99.90
20416;DHT22;10367;52.202;5.996;2022-10-16T10:20:23;16.70;99.90
20416;DHT22;10367;52.202;5.996;2022-10-16T10:22:52;16.80;99.90
20416;DHT22;10367;52.202;5.996;2022-10-16T10:25:39;16.80;99.90
20416;DHT22;10367;52.202;5.996;2022-10-16T10:28:22;17.00;99.90
20416;DHT22;10367;52.202;5.996;2022-10-16T10:30:59;17.00;99.90
20416;DHT22;10367;52.202;5.996;2022-10-16T10:33:38;17.20;99.90
20416;DHT22;10367;52.202;5.996;2022-10-16T10:36:23;17.40;99.90
20416;DHT22;10367;52.202;5.996;2022-10-16T10:38:57;17.40;99.90
20416;DHT22;10367;52.202;5.996;2022-10-16T10:42:02;17.50;99.90
20416;DHT22;10367;52.202;5.996;2022-10-16T10:44:57;17.80;99.90
20416;DHT22;10367;52.202;5.996;2022-10-16T10:47:40;18.00;99.90
20416;DHT22;10367;52.202;5.996;2022-10-16T10:50:22;18.10;99.90
20416;DHT22;10367;52.202;5.996;2022-10-16T10:53:01;17.90;99.90
20416;DHT22;10367;52.202;5.996;2022-10-16T10:55:38;17.80;99.90
20416;DHT22;10367;52.202;5.996;2022-10-16T10:58:24;17.80;99.90
20416;DHT22;10367;52.202;5.996;2022-10-16T11:01:04;17.70;99.90
20416;DHT22;10367;52.202;5.996;2022-10-16T11:06:31;17.20;99.90
20416;DHT22;10367;52.202;5.996;2022-10-16T11:09:07;17.00;99.90
20416;DHT22;10367;52.202;5.996;2022-10-16T11:11:41;16.90;99.90
20416;DHT22;10367;52.202;5.996;2022-10-16T11:14:17;16.90;99.90
20416;DHT22;10367;52.202;5.996;2022-10-16T11:16:52;17.00;99.90
20416;DHT22;10367;52.202;5.996;2022-10-16T11:19:31;17.00;99.90
20416;DHT22;10367;52.202;5.996;2022-10-16T11:22:09;17.10;99.90
20416;DHT22;10367;52.202;5.996;2022-10-16T11:24:44;17.10;99.90
20416;DHT22;10367;52.202;5.996;2022-10-16T11:27:17;17.20;99.90
20416;DHT22;10367;52.202;5.996;2022-10-16T11:29:52;17.10;99.90
20416;DHT22;10367;52.202;5.996;2022-10-16T11:32:25;17.20;99.90
20416;DHT22;10367;52.202;5.996;2022-10-16T11:35:00;17.40;99.90
20416;DHT22;10367;52.202;5.996;2022-10-16T11:37:33;17.80;99.90
20416;DHT22;10367;52.202;5.996;2022-10-16T11:40:19;17.80;99.90
20416;DHT22;10367;52.202;5.996;2022-10-16T11:42:51;17.90;99.90
20416;DHT22;10367;52.202;5.996;2022-10-16T11:45:28;17.90;99.90
20416;DHT22;10367;52.202;5.996;2022-10-16T11:48:02;17.70;99.90
20416;DHT22;10367;52.202;5.996;2022-10-16T11:50:38;17.60;99.90
20416;DHT22;10367;52.202;5.996;2022-10-16T11:53:16;17.50;99.90
20416;DHT22;10367;52.202;5.996;2022-10-16T11:55:48;17.70;99.90
20416;DHT22;10367;52.202;5.996;2022-10-16T11:58:22;18.10;99.90
20416;DHT22;10367;52.202;5.996;2022-10-16T12:00:59;18.40;99.90
20416;DHT22;10367;52.202;5.996;2022-10-16T12:03:33;18.60;99.90
20416;DHT22;10367;52.202;5.996;2022-10-16T12:06:27;18.90;99.90
20416;DHT22;10367;52.202;5.996;2022-10-16T12:09:01;18.90;99.90
20416;DHT22;10367;52.202;5.996;2022-10-16T12:11:33;18.70;99.90
20416;DHT22;10367;52.202;5.996;2022-10-16T12:14:33;18.70;99.90
20416;DHT22;10367;52.202;5.996;2022-10-16T12:17:26;18.40;99.90
20416;DHT22;10367;52.202;5.996;2022-10-16T12:20:00;17.90;99.90
20416;DHT22;10367;52.202;5.996;2022-10-16T12:22:30;17.60;99.90
20416;DHT22;10367;52.202;5.996;2022-10-16T12:25:20;17.50;99.90
20416;DHT22;10367;52.202;5.996;2022-10-16T12:27:55;17.70;99.90
20416;DHT22;10367;52.202;5.996;2022-10-16T12:30:29;17.90;99.90
20416;DHT22;10367;52.202;5.996;2022-10-16T12:33:04;18.20;99.90
20416;DHT22;10367;52.202;5.996;2022-10-16T12:35:35;18.50;99.90
20416;DHT22;10367;52.202;5.996;2022-10-16T12:38:17;18.40;99.90
20416;DHT22;10367;52.202;5.996;2022-10-16T12:40:56;18.30;99.90
20416;DHT22;10367;52.202;5.996;2022-10-16T12:43:35;18.20;99.90
20416;DHT22;10367;52.202;5.996;2022-10-16T12:46:24;18.40;99.90
20416;DHT22;10367;52.202;5.996;2022-10-16T12:48:53;18.50;99.90
20416;DHT22;10367;52.202;5.996;2022-10-16T12:51:35;18.80;99.90
20416;DHT22;10367;52.202;5.996;2022-10-16T12:54:12;19.10;99.90
20416;DHT22;10367;52.202;5.996;2022-10-16T12:56:53;19.20;99.90
20416;DHT22;10367;52.202;5.996;2022-10-16T12:59:31;19.40;99.90
20416;DHT22;10367;52.202;5.996;2022-10-16T13:05:21;19.30;99.90
20416;DHT22;10367;52.202;5.996;2022-10-16T13:08:00;19.20;99.90
20416;DHT22;10367;52.202;5.996;2022-10-16T13:10:38;19.30;99.90
20416;DHT22;10367;52.202;5.996;2022-10-16T13:13:27;19.40;99.90
20416;DHT22;10367;52.202;5.996;2022-10-16T13:16:21;19.50;99.90
20416;DHT22;10367;52.202;5.996;2022-10-16T13:19:01;19.50;99.90
20416;DHT22;10367;52.202;5.996;2022-10-16T13:21:43;19.30;99.90
20416;DHT22;10367;52.202;5.996;2022-10-16T13:24:35;19.20;99.90
20416;DHT22;10367;52.202;5.996;2022-10-16T13:27:09;19.10;99.90
20416;DHT22;10367;52.202;5.996;2022-10-16T13:29:41;19.20;99.90
20416;DHT22;10367;52.202;5.996;2022-10-16T13:32:11;19.40;99.90
20416;DHT22;10367;52.202;5.996;2022-10-16T13:34:46;19.60;99.90
20416;DHT22;10367;52.202;5.996;2022-10-16T13:37:20;19.60;99.90
20416;DHT22;10367;52.202;5.996;2022-10-16T13:39:49;19.40;99.90
20416;DHT22;10367;52.202;5.996;2022-10-16T13:42:23;19.40;99.90
20416;DHT22;10367;52.202;5.996;2022-10-16T13:44:56;19.40;99.90
20416;DHT22;10367;52.202;5.996;2022-10-16T13:47:27;19.50;99.90
20416;DHT22;10367;52.202;5.996;2022-10-16T13:50:00;19.70;99.90
20416;DHT22;10367;52.202;5.996;2022-10-16T13:52:30;19.70;99.90
20416;DHT22;10367;52.202;5.996;2022-10-16T13:54:59;19.60;99.90
20416;DHT22;10367;52.202;5.996;2022-10-16T13:57:29;19.60;99.90
20416;DHT22;10367;52.202;5.996;2022-10-16T13:59:59;19.60;99.90
20416;DHT22;10367;52.202;5.996;2022-10-16T14:02:31;19.60;99.90
20416;DHT22;10367;52.202;5.996;2022-10-16T14:05:04;19.60;99.90
20416;DHT22;10367;52.202;5.996;2022-10-16T14:07:33;19.40;99.90
20416;DHT22;10367;52.202;5.996;2022-10-16T14:10:06;19.20;99.90
20416;DHT22;10367;52.202;5.996;2022-10-16T14:12:35;19.30;99.90
20416;DHT22;10367;52.202;5.996;2022-10-16T14:15:17;19.40;99.90
20416;DHT22;10367;52.202;5.996;2022-10-16T14:17:50;19.50;99.90
20416;DHT22;10367;52.202;5.996;2022-10-16T14:20:20;19.40;99.90
20416;DHT22;10367;52.202;5.996;2022-10-16T14:22:59;19.20;99.90
20416;DHT22;10367;52.202;5.996;2022-10-16T14:25:30;19.10;99.90
20416;DHT22;10367;52.202;5.996;2022-10-16T14:28:03;19.10;99.90
20416;DHT22;10367;52.202;5.996;2022-10-16T14:30:35;19.00;99.90
20416;DHT22;10367;52.202;5.996;2022-10-16T14:33:05;19.20;99.90
20416;DHT22;10367;52.202;5.996;2022-10-16T14:35:36;19.10;99.90
20416;DHT22;10367;52.202;5.996;2022-10-16T14:38:18;19.10;99.90
20416;DHT22;10367;52.202;5.996;2022-10-16T14:40:48;18.90;99.90
20416;DHT22;10367;52.202;5.996;2022-10-16T14:43:22;18.70;99.90
20416;DHT22;10367;52.202;5.996;2022-10-16T14:45:54;18.70;99.90
20416;DHT22;10367;52.202;5.996;2022-10-16T14:48:24;18.70;99.90
20416;DHT22;10367;52.202;5.996;2022-10-16T14:50:53;18.70;99.90
20416;DHT22;10367;52.202;5.996;2022-10-16T14:53:22;18.80;99.90
20416;DHT22;10367;52.202;5.996;2022-10-16T14:55:50;18.90;99.90
20416;DHT22;10367;52.202;5.996;2022-10-16T14:58:21;19.00;99.90
20416;DHT22;10367;52.202;5.996;2022-10-16T15:00:52;18.80;99.90
20416;DHT22;10367;52.202;5.996;2022-10-16T15:03:21;18.70;99.90
20416;DHT22;10367;52.202;5.996;2022-10-16T15:05:49;18.60;99.90
20416;DHT22;10367;52.202;5.996;2022-10-16T15:11:24;18.30;99.90
20416;DHT22;10367;52.202;5.996;2022-10-16T15:13:53;18.20;99.90
20416;DHT22;10367;52.202;5.996;2022-10-16T15:16:24;18.10;99.90
20416;DHT22;10367;52.202;5.996;2022-10-16T15:18:53;17.90;99.90
20416;DHT22;10367;52.202;5.996;2022-10-16T15:21:25;17.80;99.90
20416;DHT22;10367;52.202;5.996;2022-10-16T15:23:54;17.70;99.90
20416;DHT22;10367;52.202;5.996;2022-10-16T15:26:24;17.60;99.90
20416;DHT22;10367;52.202;5.996;2022-10-16T15:28:53;17.50;99.90
20416;DHT22;10367;52.202;5.996;2022-10-16T15:31:24;17.50;99.90
20416;DHT22;10367;52.202;5.996;2022-10-16T15:33:53;17.50;99.90
20416;DHT22;10367;52.202;5.996;2022-10-16T15:36:26;17.50;99.90
20416;DHT22;10367;52.202;5.996;2022-10-16T15:38:55;17.30;99.90
20416;DHT22;10367;52.202;5.996;2022-10-16T15:41:24;17.20;99.90
20416;DHT22;10367;52.202;5.996;2022-10-16T15:43:53;17.10;99.90
20416;DHT22;10367;52.202;5.996;2022-10-16T15:46:24;16.80;99.90
20416;DHT22;10367;52.202;5.996;2022-10-16T15:48:56;16.60;99.90
20416;DHT22;10367;52.202;5.996;2022-10-16T15:51:26;16.50;99.90
20416;DHT22;10367;52.202;5.996;2022-10-16T15:53:56;16.30;99.90
20416;DHT22;10367;52.202;5.996;2022-10-16T15:56:26;16.10;99.90
20416;DHT22;10367;52.202;5.996;2022-10-16T15:58:56;15.90;99.90
20416;DHT22;10367;52.202;5.996;2022-10-16T16:01:27;15.80;99.90
20416;DHT22;10367;52.202;5.996;2022-10-16T16:03:56;15.60;99.90
20416;DHT22;10367;52.202;5.996;2022-10-16T16:06:25;15.50;99.90
20416;DHT22;10367;52.202;5.996;2022-10-16T16:08:54;15.50;99.90
20416;DHT22;10367;52.202;5.996;2022-10-16T16:11:22;15.40;99.90
20416;DHT22;10367;52.202;5.996;2022-10-16T16:13:51;15.30;99.90
20416;DHT22;10367;52.202;5.996;2022-10-16T16:16:22;15.20;99.90